sensor_id;sensor_type;location;lat;lon;timestamp;temperature;humidity
16200;DHT22;8207;52.494;4.654;2023-02-28T00:01:46;3.00;99.90
16200;DHT22;8207;52.494;4.654;2023-02-28T00:04:14;3.00;99.90
16200;DHT22;8207;52.494;4.654;2023-02-28T00:06:41;3.10;99.90
16200;DHT22;8207;52.494;4.654;2023-02-28T00:09:08;3.10;99.90
16200;DHT22;8207;52.494;4.654;2023-02-28T00:11:35;3.10;99.90
16200;DHT22;8207;52.494;4.654;2023-02-28T00:14:03;3.10;99.90
16200;DHT22;8207;52.494;4.654;2023-02-28T00:16:30;3.10;99.90
16200;DHT22;8207;52.494;4.654;2023-02-28T00:18:57;3.20;99.90
16200;DHT22;8207;52.494;4.654;2023-02-28T00:21:25;3.20;99.90
16200;DHT22;8207;52.494;4.654;2023-02-28T00:23:52;3.20;99.90
16200;DHT22;8207;52.494;4.654;2023-02-28T00:26:19;3.30;99.90
16200;DHT22;8207;52.494;4.654;2023-02-28T00:28:46;3.30;99.90
16200;DHT22;8207;52.494;4.654;2023-02-28T00:31:13;3.30;99.90
16200;DHT22;8207;52.494;4.654;2023-02-28T00:33:40;3.40;99.90
16200;DHT22;8207;52.494;4.654;2023-02-28T00:36:09;3.40;99.90
16200;DHT22;8207;52.494;4.654;2023-02-28T00:38:38;3.40;99.90
16200;DHT22;8207;52.494;4.654;2023-02-28T00:41:06;3.40;99.90
16200;DHT22;8207;52.494;4.654;2023-02-28T00:43:33;3.50;99.90
16200;DHT22;8207;52.494;4.654;2023-02-28T00:46:01;3.50;99.90
16200;DHT22;8207;52.494;4.654;2023-02-28T00:48:28;3.50;99.90
16200;DHT22;8207;52.494;4.654;2023-02-28T00:50:55;3.50;99.90
16200;DHT22;8207;52.494;4.654;2023-02-28T00:53:22;3.50;99.90
16200;DHT22;8207;52.494;4.654;2023-02-28T00:55:50;3.60;99.90
16200;DHT22;8207;52.494;4.654;2023-02-28T00:58:18;3.50;99.90
16200;DHT22;8207;52.494;4.654;2023-02-28T01:00:45;3.60;99.90
16200;DHT22;8207;52.494;4.654;2023-02-28T01:03:14;3.60;99.90
16200;DHT22;8207;52.494;4.654;2023-02-28T01:05:41;3.60;99.90
16200;DHT22;8207;52.494;4.654;2023-02-28T01:08:09;3.70;99.90
16200;DHT22;8207;52.494;4.654;2023-02-28T01:10:35;3.80;99.90
16200;DHT22;8207;52.494;4.654;2023-02-28T01:13:05;3.80;99.90
16200;DHT22;8207;52.494;4.654;2023-02-28T01:15:32;3.90;99.90
16200;DHT22;8207;52.494;4.654;2023-02-28T01:17:59;4.00;99.90
16200;DHT22;8207;52.494;4.654;2023-02-28T01:20:27;4.10;99.90
16200;DHT22;8207;52.494;4.654;2023-02-28T01:22:54;4.20;99.90
16200;DHT22;8207;52.494;4.654;2023-02-28T01:25:21;4.20;99.90
16200;DHT22;8207;52.494;4.654;2023-02-28T01:27:47;4.30;99.90
16200;DHT22;8207;52.494;4.654;2023-02-28T01:30:16;4.30;99.90
16200;DHT22;8207;52.494;4.654;2023-02-28T01:32:43;4.30;99.90
16200;DHT22;8207;52.494;4.654;2023-02-28T01:35:10;4.30;99.90
16200;DHT22;8207;52.494;4.654;2023-02-28T01:37:37;4.30;99.90
16200;DHT22;8207;52.494;4.654;2023-02-28T01:40:05;4.40;99.90
16200;DHT22;8207;52.494;4.654;2023-02-28T01:42:32;4.40;99.90
16200;DHT22;8207;52.494;4.654;2023-02-28T01:45:02;4.40;99.90
16200;DHT22;8207;52.494;4.654;2023-02-28T01:47:36;4.40;99.90
16200;DHT22;8207;52.494;4.654;2023-02-28T01:50:09;4.40;99.90
16200;DHT22;8207;52.494;4.654;2023-02-28T01:52:39;4.40;99.90
16200;DHT22;8207;52.494;4.654;2023-02-28T01:55:08;4.40;99.90
16200;DHT22;8207;52.494;4.654;2023-02-28T01:57:40;4.30;99.90
16200;DHT22;8207;52.494;4.654;2023-02-28T02:00:11;4.30;99.90
16200;DHT22;8207;52.494;4.654;2023-02-28T02:02:42;4.30;99.90
16200;DHT22;8207;52.494;4.654;2023-02-28T02:05:12;4.30;99.90
16200;DHT22;8207;52.494;4.654;2023-02-28T02:07:43;4.30;99.90
16200;DHT22;8207;52.494;4.654;2023-02-28T02:10:14;4.30;99.90
16200;DHT22;8207;52.494;4.654;2023-02-28T02:15:41;4.40;99.90
16200;DHT22;8207;52.494;4.654;2023-02-28T02:18:17;4.40;99.90
16200;DHT22;8207;52.494;4.654;2023-02-28T02:21:09;4.40;99.90
16200;DHT22;8207;52.494;4.654;2023-02-28T02:24:31;4.30;99.90
16200;DHT22;8207;52.494;4.654;2023-02-28T02:27:09;4.40;99.90
16200;DHT22;8207;52.494;4.654;2023-02-28T02:30:04;4.40;99.90
16200;DHT22;8207;52.494;4.654;2023-02-28T02:36:12;4.40;99.90
16200;DHT22;8207;52.494;4.654;2023-02-28T02:38:46;4.40;99.90
16200;DHT22;8207;52.494;4.654;2023-02-28T02:41:19;4.40;99.90
16200;DHT22;8207;52.494;4.654;2023-02-28T02:43:51;4.40;99.90
16200;DHT22;8207;52.494;4.654;2023-02-28T02:46:20;4.40;99.90
16200;DHT22;8207;52.494;4.654;2023-02-28T02:49:35;4.40;99.90
16200;DHT22;8207;52.494;4.654;2023-02-28T02:56:07;4.40;99.90
16200;DHT22;8207;52.494;4.654;2023-02-28T02:58:37;4.30;99.90
16200;DHT22;8207;52.494;4.654;2023-02-28T03:01:08;4.30;99.90
16200;DHT22;8207;52.494;4.654;2023-02-28T03:03:37;4.30;99.90
16200;DHT22;8207;52.494;4.654;2023-02-28T03:06:04;4.30;99.90
16200;DHT22;8207;52.494;4.654;2023-02-28T03:08:35;4.30;99.90
16200;DHT22;8207;52.494;4.654;2023-02-28T03:11:05;4.30;99.90
16200;DHT22;8207;52.494;4.654;2023-02-28T03:13:55;4.30;99.90
16200;DHT22;8207;52.494;4.654;2023-02-28T03:16:46;4.30;99.90
16200;DHT22;8207;52.494;4.654;2023-02-28T03:19:30;4.20;99.90
16200;DHT22;8207;52.494;4.654;2023-02-28T03:22:11;4.30;99.90
16200;DHT22;8207;52.494;4.654;2023-02-28T03:24:45;4.20;99.90
16200;DHT22;8207;52.494;4.654;2023-02-28T03:27:20;4.20;99.90
16200;DHT22;8207;52.494;4.654;2023-02-28T03:29:54;4.20;99.90
16200;DHT22;8207;52.494;4.654;2023-02-28T03:32:26;4.20;99.90
16200;DHT22;8207;52.494;4.654;2023-02-28T03:34:58;4.20;99.90
16200;DHT22;8207;52.494;4.654;2023-02-28T03:37:29;4.20;99.90
16200;DHT22;8207;52.494;4.654;2023-02-28T03:40:03;4.20;99.90
16200;DHT22;8207;52.494;4.654;2023-02-28T03:42:37;4.20;99.90
16200;DHT22;8207;52.494;4.654;2023-02-28T03:45:10;4.20;99.90
16200;DHT22;8207;52.494;4.654;2023-02-28T03:47:41;4.20;99.90
16200;DHT22;8207;52.494;4.654;2023-02-28T03:50:14;4.20;99.90
16200;DHT22;8207;52.494;4.654;2023-02-28T03:52:48;4.20;99.90
16200;DHT22;8207;52.494;4.654;2023-02-28T03:55:17;4.20;99.90
16200;DHT22;8207;52.494;4.654;2023-02-28T03:57:54;4.20;99.90
16200;DHT22;8207;52.494;4.654;2023-02-28T04:00:28;4.20;99.90
16200;DHT22;8207;52.494;4.654;2023-02-28T04:02:57;4.20;99.90
16200;DHT22;8207;52.494;4.654;2023-02-28T04:05:24;4.20;99.90
16200;DHT22;8207;52.494;4.654;2023-02-28T04:07:52;4.20;99.90
16200;DHT22;8207;52.494;4.654;2023-02-28T04:10:19;4.20;99.90
16200;DHT22;8207;52.494;4.654;2023-02-28T04:12:47;4.20;99.90
16200;DHT22;8207;52.494;4.654;2023-02-28T04:15:15;4.20;99.90
16200;DHT22;8207;52.494;4.654;2023-02-28T04:17:41;4.20;99.90
16200;DHT22;8207;52.494;4.654;2023-02-28T04:20:10;4.20;99.90
16200;DHT22;8207;52.494;4.654;2023-02-28T04:22:37;4.10;99.90
16200;DHT22;8207;52.494;4.654;2023-02-28T04:25:05;4.20;99.90
16200;DHT22;8207;52.494;4.654;2023-02-28T04:27:32;4.20;99.90
16200;DHT22;8207;52.494;4.654;2023-02-28T04:30:01;4.10;99.90
16200;DHT22;8207;52.494;4.654;2023-02-28T04:32:28;4.20;99.90
16200;DHT22;8207;52.494;4.654;2023-02-28T04:34:54;4.10;99.90
16200;DHT22;8207;52.494;4.654;2023-02-28T04:37:21;4.10;99.90
16200;DHT22;8207;52.494;4.654;2023-02-28T04:39:53;4.10;99.90
16200;DHT22;8207;52.494;4.654;2023-02-28T04:42:20;4.10;99.90
16200;DHT22;8207;52.494;4.654;2023-02-28T04:44:47;4.10;99.90
16200;DHT22;8207;52.494;4.654;2023-02-28T04:47:15;4.10;99.90
16200;DHT22;8207;52.494;4.654;2023-02-28T04:49:43;4.10;99.90
16200;DHT22;8207;52.494;4.654;2023-02-28T04:52:09;4.10;99.90
16200;DHT22;8207;52.494;4.654;2023-02-28T04:54:38;4.10;99.90
16200;DHT22;8207;52.494;4.654;2023-02-28T04:57:05;4.10;99.90
16200;DHT22;8207;52.494;4.654;2023-02-28T04:59:32;4.20;99.90
16200;DHT22;8207;52.494;4.654;2023-02-28T05:01:59;4.20;99.90
16200;DHT22;8207;52.494;4.654;2023-02-28T05:04:33;4.20;99.90
16200;DHT22;8207;52.494;4.654;2023-02-28T05:07:01;4.20;99.90
16200;DHT22;8207;52.494;4.654;2023-02-28T05:09:28;4.30;99.90
16200;DHT22;8207;52.494;4.654;2023-02-28T05:11:56;4.30;99.90
16200;DHT22;8207;52.494;4.654;2023-02-28T05:14:23;4.30;99.90
16200;DHT22;8207;52.494;4.654;2023-02-28T05:16:51;4.30;99.90
16200;DHT22;8207;52.494;4.654;2023-02-28T05:19:17;4.30;99.90
16200;DHT22;8207;52.494;4.654;2023-02-28T05:21:51;4.30;99.90
16200;DHT22;8207;52.494;4.654;2023-02-28T05:24:18;4.30;99.90
16200;DHT22;8207;52.494;4.654;2023-02-28T05:26:49;4.30;99.90
16200;DHT22;8207;52.494;4.654;2023-02-28T05:29:16;4.30;99.90
16200;DHT22;8207;52.494;4.654;2023-02-28T05:31:43;4.30;99.90
16200;DHT22;8207;52.494;4.654;2023-02-28T05:34:10;4.30;99.90
16200;DHT22;8207;52.494;4.654;2023-02-28T05:36:38;4.30;99.90
16200;DHT22;8207;52.494;4.654;2023-02-28T05:39:07;4.40;99.90
16200;DHT22;8207;52.494;4.654;2023-02-28T05:41:39;4.40;99.90
16200;DHT22;8207;52.494;4.654;2023-02-28T05:44:06;4.40;99.90
16200;DHT22;8207;52.494;4.654;2023-02-28T05:46:32;4.40;99.90
16200;DHT22;8207;52.494;4.654;2023-02-28T05:48:59;4.40;99.90
16200;DHT22;8207;52.494;4.654;2023-02-28T05:51:26;4.40;99.90
16200;DHT22;8207;52.494;4.654;2023-02-28T05:53:53;4.50;99.90
16200;DHT22;8207;52.494;4.654;2023-02-28T05:56:21;4.40;99.90
16200;DHT22;8207;52.494;4.654;2023-02-28T05:58:48;4.50;99.90
16200;DHT22;8207;52.494;4.654;2023-02-28T06:01:24;4.50;99.90
16200;DHT22;8207;52.494;4.654;2023-02-28T06:03:53;4.50;99.90
16200;DHT22;8207;52.494;4.654;2023-02-28T06:06:19;4.50;99.90
16200;DHT22;8207;52.494;4.654;2023-02-28T06:08:46;4.50;99.90
16200;DHT22;8207;52.494;4.654;2023-02-28T06:11:13;4.50;99.90
16200;DHT22;8207;52.494;4.654;2023-02-28T06:13:42;4.50;99.90
16200;DHT22;8207;52.494;4.654;2023-02-28T06:16:10;4.50;99.90
16200;DHT22;8207;52.494;4.654;2023-02-28T06:18:38;4.60;99.90
16200;DHT22;8207;52.494;4.654;2023-02-28T06:21:05;4.60;99.90
16200;DHT22;8207;52.494;4.654;2023-02-28T06:23:32;4.60;99.90
16200;DHT22;8207;52.494;4.654;2023-02-28T06:25:59;4.50;99.90
16200;DHT22;8207;52.494;4.654;2023-02-28T06:28:26;4.50;99.90
16200;DHT22;8207;52.494;4.654;2023-02-28T06:30:54;4.50;99.90
16200;DHT22;8207;52.494;4.654;2023-02-28T06:33:21;4.50;99.90
16200;DHT22;8207;52.494;4.654;2023-02-28T06:35:50;4.40;99.90
16200;DHT22;8207;52.494;4.654;2023-02-28T06:38:17;4.40;99.90
16200;DHT22;8207;52.494;4.654;2023-02-28T06:40:45;4.40;99.90
16200;DHT22;8207;52.494;4.654;2023-02-28T06:43:19;4.40;99.90
16200;DHT22;8207;52.494;4.654;2023-02-28T06:45:46;4.30;99.90
16200;DHT22;8207;52.494;4.654;2023-02-28T06:48:14;4.30;99.90
16200;DHT22;8207;52.494;4.654;2023-02-28T06:50:41;4.30;99.90
16200;DHT22;8207;52.494;4.654;2023-02-28T06:53:08;4.30;99.90
16200;DHT22;8207;52.494;4.654;2023-02-28T06:55:37;4.30;99.90
16200;DHT22;8207;52.494;4.654;2023-02-28T06:58:04;4.30;99.90
16200;DHT22;8207;52.494;4.654;2023-02-28T07:00:40;4.30;99.90
16200;DHT22;8207;52.494;4.654;2023-02-28T07:03:07;4.20;99.90
16200;DHT22;8207;52.494;4.654;2023-02-28T07:05:36;4.30;99.90
16200;DHT22;8207;52.494;4.654;2023-02-28T07:08:04;4.20;99.90
16200;DHT22;8207;52.494;4.654;2023-02-28T07:10:32;4.20;99.90
16200;DHT22;8207;52.494;4.654;2023-02-28T07:13:00;4.30;99.90
16200;DHT22;8207;52.494;4.654;2023-02-28T07:15:27;4.30;99.90
16200;DHT22;8207;52.494;4.654;2023-02-28T07:17:54;4.30;99.90
16200;DHT22;8207;52.494;4.654;2023-02-28T07:20:22;4.30;99.90
16200;DHT22;8207;52.494;4.654;2023-02-28T07:22:50;4.30;99.90
16200;DHT22;8207;52.494;4.654;2023-02-28T07:25:22;4.30;99.90
16200;DHT22;8207;52.494;4.654;2023-02-28T07:27:49;4.30;99.90
16200;DHT22;8207;52.494;4.654;2023-02-28T07:30:16;4.30;99.90
16200;DHT22;8207;52.494;4.654;2023-02-28T07:32:43;4.30;99.90
16200;DHT22;8207;52.494;4.654;2023-02-28T07:35:10;4.20;99.90
16200;DHT22;8207;52.494;4.654;2023-02-28T07:44:37;4.00;99.90
16200;DHT22;8207;52.494;4.654;2023-02-28T07:47:06;4.00;99.90
16200;DHT22;8207;52.494;4.654;2023-02-28T07:49:34;4.00;99.90
16200;DHT22;8207;52.494;4.654;2023-02-28T07:52:01;3.90;99.90
16200;DHT22;8207;52.494;4.654;2023-02-28T07:57:53;3.90;99.90
16200;DHT22;8207;52.494;4.654;2023-02-28T08:00:23;3.80;99.90
16200;DHT22;8207;52.494;4.654;2023-02-28T08:02:50;3.70;99.90
16200;DHT22;8207;52.494;4.654;2023-02-28T08:05:17;3.80;99.90
16200;DHT22;8207;52.494;4.654;2023-02-28T08:07:44;3.70;99.90
16200;DHT22;8207;52.494;4.654;2023-02-28T08:10:13;3.70;99.90
16200;DHT22;8207;52.494;4.654;2023-02-28T08:12:40;3.70;99.90
16200;DHT22;8207;52.494;4.654;2023-02-28T08:15:08;3.70;99.90
16200;DHT22;8207;52.494;4.654;2023-02-28T08:17:36;3.70;99.90
16200;DHT22;8207;52.494;4.654;2023-02-28T08:20:03;3.70;99.90
16200;DHT22;8207;52.494;4.654;2023-02-28T08:22:30;3.70;99.90
16200;DHT22;8207;52.494;4.654;2023-02-28T08:24:57;3.60;99.90
16200;DHT22;8207;52.494;4.654;2023-02-28T08:27:24;3.60;99.90
16200;DHT22;8207;52.494;4.654;2023-02-28T08:29:51;3.40;99.90
16200;DHT22;8207;52.494;4.654;2023-02-28T08:32:18;3.40;99.90
16200;DHT22;8207;52.494;4.654;2023-02-28T08:34:46;3.40;99.90
16200;DHT22;8207;52.494;4.654;2023-02-28T08:37:13;3.30;99.90
16200;DHT22;8207;52.494;4.654;2023-02-28T08:39:40;3.20;99.90
16200;DHT22;8207;52.494;4.654;2023-02-28T08:42:07;3.20;99.90
16200;DHT22;8207;52.494;4.654;2023-02-28T08:44:34;3.30;99.90
16200;DHT22;8207;52.494;4.654;2023-02-28T08:47:01;3.20;99.90
16200;DHT22;8207;52.494;4.654;2023-02-28T08:49:28;3.20;99.90
16200;DHT22;8207;52.494;4.654;2023-02-28T08:51:56;3.20;99.90
16200;DHT22;8207;52.494;4.654;2023-02-28T08:54:23;3.20;99.90
16200;DHT22;8207;52.494;4.654;2023-02-28T08:56:50;3.30;99.90
16200;DHT22;8207;52.494;4.654;2023-02-28T08:59:17;3.20;99.90
16200;DHT22;8207;52.494;4.654;2023-02-28T09:01:44;3.20;99.90
16200;DHT22;8207;52.494;4.654;2023-02-28T09:04:11;3.20;99.90
16200;DHT22;8207;52.494;4.654;2023-02-28T09:06:38;3.20;99.90
16200;DHT22;8207;52.494;4.654;2023-02-28T09:09:06;3.20;99.90
16200;DHT22;8207;52.494;4.654;2023-02-28T09:11:35;3.10;99.90
16200;DHT22;8207;52.494;4.654;2023-02-28T09:14:02;3.20;99.90
16200;DHT22;8207;52.494;4.654;2023-02-28T09:16:30;3.10;99.90
16200;DHT22;8207;52.494;4.654;2023-02-28T09:18:57;3.20;99.90
16200;DHT22;8207;52.494;4.654;2023-02-28T09:21:24;3.20;99.90
16200;DHT22;8207;52.494;4.654;2023-02-28T09:23:52;3.20;99.90
16200;DHT22;8207;52.494;4.654;2023-02-28T09:26:22;3.20;99.90
16200;DHT22;8207;52.494;4.654;2023-02-28T09:28:50;3.30;99.90
16200;DHT22;8207;52.494;4.654;2023-02-28T09:31:19;3.40;99.90
16200;DHT22;8207;52.494;4.654;2023-02-28T09:33:47;3.40;99.90
16200;DHT22;8207;52.494;4.654;2023-02-28T09:36:14;3.50;99.90
16200;DHT22;8207;52.494;4.654;2023-02-28T09:38:41;3.50;99.90
16200;DHT22;8207;52.494;4.654;2023-02-28T09:41:13;3.50;99.90
16200;DHT22;8207;52.494;4.654;2023-02-28T09:43:45;3.50;99.90
16200;DHT22;8207;52.494;4.654;2023-02-28T09:46:29;3.60;99.90
16200;DHT22;8207;52.494;4.654;2023-02-28T09:48:59;3.70;99.90
16200;DHT22;8207;52.494;4.654;2023-02-28T09:51:47;3.70;99.90
16200;DHT22;8207;52.494;4.654;2023-02-28T09:54:18;3.70;99.90
16200;DHT22;8207;52.494;4.654;2023-02-28T09:56:48;3.70;99.90
16200;DHT22;8207;52.494;4.654;2023-02-28T09:59:29;3.80;99.90
16200;DHT22;8207;52.494;4.654;2023-02-28T10:02:04;3.90;99.90
16200;DHT22;8207;52.494;4.654;2023-02-28T10:04:40;4.00;99.90
16200;DHT22;8207;52.494;4.654;2023-02-28T10:07:18;4.00;99.90
16200;DHT22;8207;52.494;4.654;2023-02-28T10:09:51;4.00;99.90
16200;DHT22;8207;52.494;4.654;2023-02-28T10:12:20;4.00;99.90
16200;DHT22;8207;52.494;4.654;2023-02-28T10:14:52;4.00;99.90
16200;DHT22;8207;52.494;4.654;2023-02-28T10:17:21;4.10;99.90
16200;DHT22;8207;52.494;4.654;2023-02-28T10:19:56;4.10;99.90
16200;DHT22;8207;52.494;4.654;2023-02-28T10:22:28;4.10;99.90
16200;DHT22;8207;52.494;4.654;2023-02-28T10:24:57;4.20;99.90
16200;DHT22;8207;52.494;4.654;2023-02-28T10:27:30;4.30;99.90
16200;DHT22;8207;52.494;4.654;2023-02-28T10:30:00;4.40;99.90
16200;DHT22;8207;52.494;4.654;2023-02-28T10:32:30;4.50;99.90
16200;DHT22;8207;52.494;4.654;2023-02-28T10:35:00;4.50;99.90
16200;DHT22;8207;52.494;4.654;2023-02-28T10:37:27;4.60;99.90
16200;DHT22;8207;52.494;4.654;2023-02-28T10:39:55;4.70;99.90
16200;DHT22;8207;52.494;4.654;2023-02-28T10:42:24;4.70;99.90
16200;DHT22;8207;52.494;4.654;2023-02-28T10:45:12;4.70;99.90
16200;DHT22;8207;52.494;4.654;2023-02-28T10:47:49;4.70;99.90
16200;DHT22;8207;52.494;4.654;2023-02-28T10:50:38;4.80;99.90
16200;DHT22;8207;52.494;4.654;2023-02-28T10:53:28;4.90;99.90
16200;DHT22;8207;52.494;4.654;2023-02-28T10:55:59;5.00;99.90
16200;DHT22;8207;52.494;4.654;2023-02-28T10:58:29;5.00;99.90
16200;DHT22;8207;52.494;4.654;2023-02-28T11:00:59;5.10;99.90
16200;DHT22;8207;52.494;4.654;2023-02-28T11:03:30;5.20;99.90
16200;DHT22;8207;52.494;4.654;2023-02-28T11:06:03;5.10;99.90
16200;DHT22;8207;52.494;4.654;2023-02-28T11:08:30;5.20;99.90
16200;DHT22;8207;52.494;4.654;2023-02-28T11:11:01;5.20;99.90
16200;DHT22;8207;52.494;4.654;2023-02-28T11:13:32;5.20;99.90
16200;DHT22;8207;52.494;4.654;2023-02-28T11:16:04;5.30;99.90
16200;DHT22;8207;52.494;4.654;2023-02-28T11:18:38;5.40;99.90
16200;DHT22;8207;52.494;4.654;2023-02-28T11:21:06;5.60;99.90
16200;DHT22;8207;52.494;4.654;2023-02-28T11:23:35;5.70;99.90
16200;DHT22;8207;52.494;4.654;2023-02-28T11:26:04;5.90;99.90
16200;DHT22;8207;52.494;4.654;2023-02-28T11:28:37;5.80;99.90
16200;DHT22;8207;52.494;4.654;2023-02-28T11:31:15;5.80;99.90
16200;DHT22;8207;52.494;4.654;2023-02-28T11:33:45;5.80;99.90
16200;DHT22;8207;52.494;4.654;2023-02-28T11:36:18;5.80;99.90
16200;DHT22;8207;52.494;4.654;2023-02-28T11:38:45;5.90;99.90
16200;DHT22;8207;52.494;4.654;2023-02-28T11:41:45;6.00;99.90
16200;DHT22;8207;52.494;4.654;2023-02-28T11:44:31;6.00;99.90
16200;DHT22;8207;52.494;4.654;2023-02-28T11:47:09;6.20;99.90
16200;DHT22;8207;52.494;4.654;2023-02-28T11:49:47;6.10;99.90
16200;DHT22;8207;52.494;4.654;2023-02-28T11:52:21;6.20;99.90
16200;DHT22;8207;52.494;4.654;2023-02-28T11:55:09;6.30;99.90
16200;DHT22;8207;52.494;4.654;2023-02-28T12:00:57;6.30;99.90
16200;DHT22;8207;52.494;4.654;2023-02-28T12:03:34;6.40;99.90
16200;DHT22;8207;52.494;4.654;2023-02-28T12:06:15;6.50;99.90
16200;DHT22;8207;52.494;4.654;2023-02-28T12:08:52;6.50;99.90
16200;DHT22;8207;52.494;4.654;2023-02-28T12:11:32;6.60;99.90
16200;DHT22;8207;52.494;4.654;2023-02-28T12:14:14;6.70;99.90
16200;DHT22;8207;52.494;4.654;2023-02-28T12:16:53;6.80;99.90
16200;DHT22;8207;52.494;4.654;2023-02-28T12:19:26;6.90;99.90
16200;DHT22;8207;52.494;4.654;2023-02-28T12:22:05;7.10;99.90
16200;DHT22;8207;52.494;4.654;2023-02-28T12:27:34;7.20;99.90
16200;DHT22;8207;52.494;4.654;2023-02-28T12:30:05;7.40;99.90
16200;DHT22;8207;52.494;4.654;2023-02-28T12:32:42;7.50;99.90
16200;DHT22;8207;52.494;4.654;2023-02-28T12:35:16;7.70;99.90
16200;DHT22;8207;52.494;4.654;2023-02-28T12:37:47;7.60;99.90
16200;DHT22;8207;52.494;4.654;2023-02-28T12:40:20;7.70;99.90
16200;DHT22;8207;52.494;4.654;2023-02-28T12:42:50;7.80;99.90
16200;DHT22;8207;52.494;4.654;2023-02-28T12:45:20;7.80;99.90
16200;DHT22;8207;52.494;4.654;2023-02-28T12:47:55;7.80;99.90
16200;DHT22;8207;52.494;4.654;2023-02-28T12:50:25;7.80;99.90
16200;DHT22;8207;52.494;4.654;2023-02-28T12:52:56;7.80;99.90
16200;DHT22;8207;52.494;4.654;2023-02-28T12:55:31;7.90;99.90
16200;DHT22;8207;52.494;4.654;2023-02-28T12:58:09;7.90;99.90
16200;DHT22;8207;52.494;4.654;2023-02-28T13:00:47;8.00;99.90
16200;DHT22;8207;52.494;4.654;2023-02-28T13:06:39;8.00;99.90
16200;DHT22;8207;52.494;4.654;2023-02-28T13:09:11;7.90;99.90
16200;DHT22;8207;52.494;4.654;2023-02-28T13:11:41;8.00;99.90
16200;DHT22;8207;52.494;4.654;2023-02-28T13:14:23;8.00;99.90
16200;DHT22;8207;52.494;4.654;2023-02-28T13:16:56;8.10;99.90
16200;DHT22;8207;52.494;4.654;2023-02-28T13:19:26;8.00;99.90
16200;DHT22;8207;52.494;4.654;2023-02-28T13:21:56;8.00;99.90
16200;DHT22;8207;52.494;4.654;2023-02-28T13:24:40;8.00;99.90
16200;DHT22;8207;52.494;4.654;2023-02-28T13:29:57;7.90;99.90
16200;DHT22;8207;52.494;4.654;2023-02-28T13:32:42;7.80;99.90
16200;DHT22;8207;52.494;4.654;2023-02-28T13:35:37;7.80;99.90
16200;DHT22;8207;52.494;4.654;2023-02-28T13:44:00;7.50;99.90
16200;DHT22;8207;52.494;4.654;2023-02-28T13:46:28;7.40;99.90
16200;DHT22;8207;52.494;4.654;2023-02-28T13:48:55;7.50;99.90
16200;DHT22;8207;52.494;4.654;2023-02-28T13:51:37;7.50;99.90
16200;DHT22;8207;52.494;4.654;2023-02-28T13:54:21;7.40;99.90
16200;DHT22;8207;52.494;4.654;2023-02-28T13:57:03;7.40;99.90
16200;DHT22;8207;52.494;4.654;2023-02-28T13:59:35;7.40;99.90
16200;DHT22;8207;52.494;4.654;2023-02-28T14:02:28;7.30;99.90
16200;DHT22;8207;52.494;4.654;2023-02-28T14:05:04;7.30;99.90
16200;DHT22;8207;52.494;4.654;2023-02-28T14:07:38;7.30;99.90
16200;DHT22;8207;52.494;4.654;2023-02-28T14:10:26;7.30;99.90
16200;DHT22;8207;52.494;4.654;2023-02-28T14:13:02;7.30;99.90
16200;DHT22;8207;52.494;4.654;2023-02-28T14:15:55;7.20;99.90
16200;DHT22;8207;52.494;4.654;2023-02-28T14:18:25;7.20;99.90
16200;DHT22;8207;52.494;4.654;2023-02-28T14:21:01;7.20;99.90
16200;DHT22;8207;52.494;4.654;2023-02-28T14:23:49;7.10;99.90
16200;DHT22;8207;52.494;4.654;2023-02-28T14:26:32;7.20;99.90
16200;DHT22;8207;52.494;4.654;2023-02-28T14:29:18;7.20;99.90
16200;DHT22;8207;52.494;4.654;2023-02-28T14:31:54;7.20;99.90
16200;DHT22;8207;52.494;4.654;2023-02-28T14:34:36;7.10;99.90
16200;DHT22;8207;52.494;4.654;2023-02-28T14:37:05;7.10;99.90
16200;DHT22;8207;52.494;4.654;2023-02-28T14:39:33;7.10;99.90
16200;DHT22;8207;52.494;4.654;2023-02-28T14:42:24;7.10;99.90
16200;DHT22;8207;52.494;4.654;2023-02-28T14:44:54;7.00;99.90
16200;DHT22;8207;52.494;4.654;2023-02-28T14:47:23;7.00;99.90
16200;DHT22;8207;52.494;4.654;2023-02-28T14:49:52;7.00;99.90
16200;DHT22;8207;52.494;4.654;2023-02-28T14:52:22;7.00;99.90
16200;DHT22;8207;52.494;4.654;2023-02-28T14:54:52;6.90;99.90
16200;DHT22;8207;52.494;4.654;2023-02-28T14:57:24;6.90;99.90
16200;DHT22;8207;52.494;4.654;2023-02-28T14:59:59;6.90;99.90
16200;DHT22;8207;52.494;4.654;2023-02-28T15:02:30;6.80;99.90
16200;DHT22;8207;52.494;4.654;2023-02-28T15:04:59;6.80;99.90
16200;DHT22;8207;52.494;4.654;2023-02-28T15:07:26;6.70;99.90
16200;DHT22;8207;52.494;4.654;2023-02-28T15:10:17;6.70;99.90
16200;DHT22;8207;52.494;4.654;2023-02-28T15:12:52;6.80;99.90
16200;DHT22;8207;52.494;4.654;2023-02-28T15:15:20;6.80;99.90
16200;DHT22;8207;52.494;4.654;2023-02-28T15:17:53;6.80;99.90
16200;DHT22;8207;52.494;4.654;2023-02-28T15:20:21;6.80;99.90
16200;DHT22;8207;52.494;4.654;2023-02-28T15:22:51;6.80;99.90
16200;DHT22;8207;52.494;4.654;2023-02-28T15:25:20;6.70;99.90
16200;DHT22;8207;52.494;4.654;2023-02-28T15:27:51;6.60;99.90
16200;DHT22;8207;52.494;4.654;2023-02-28T15:30:21;6.60;99.90
16200;DHT22;8207;52.494;4.654;2023-02-28T15:33:06;6.60;99.90
16200;DHT22;8207;52.494;4.654;2023-02-28T15:35:34;6.60;99.90
16200;DHT22;8207;52.494;4.654;2023-02-28T15:38:03;6.50;99.90
16200;DHT22;8207;52.494;4.654;2023-02-28T15:40:37;6.50;99.90
16200;DHT22;8207;52.494;4.654;2023-02-28T15:43:12;6.50;99.90
16200;DHT22;8207;52.494;4.654;2023-02-28T15:45:44;6.50;99.90
16200;DHT22;8207;52.494;4.654;2023-02-28T15:48:16;6.40;99.90
16200;DHT22;8207;52.494;4.654;2023-02-28T15:50:44;6.30;99.90
16200;DHT22;8207;52.494;4.654;2023-02-28T15:53:15;6.30;99.90
16200;DHT22;8207;52.494;4.654;2023-02-28T15:55:42;6.30;99.90
16200;DHT22;8207;52.494;4.654;2023-02-28T15:58:11;6.30;99.90
16200;DHT22;8207;52.494;4.654;2023-02-28T16:00:39;6.30;99.90
16200;DHT22;8207;52.494;4.654;2023-02-28T16:03:23;6.30;99.90
16200;DHT22;8207;52.494;4.654;2023-02-28T16:08:49;6.20;99.90
16200;DHT22;8207;52.494;4.654;2023-02-28T16:11:17;6.10;99.90
16200;DHT22;8207;52.494;4.654;2023-02-28T16:13:46;6.10;99.90
16200;DHT22;8207;52.494;4.654;2023-02-28T16:16:16;6.10;99.90
16200;DHT22;8207;52.494;4.654;2023-02-28T16:18:43;6.10;99.90
16200;DHT22;8207;52.494;4.654;2023-02-28T16:21:10;6.10;99.90
16200;DHT22;8207;52.494;4.654;2023-02-28T16:23:37;6.10;99.90
16200;DHT22;8207;52.494;4.654;2023-02-28T16:26:04;6.10;99.90
16200;DHT22;8207;52.494;4.654;2023-02-28T16:28:33;6.00;99.90
16200;DHT22;8207;52.494;4.654;2023-02-28T16:31:04;6.00;99.90
16200;DHT22;8207;52.494;4.654;2023-02-28T16:33:32;6.00;99.90
16200;DHT22;8207;52.494;4.654;2023-02-28T16:36:00;6.00;99.90
16200;DHT22;8207;52.494;4.654;2023-02-28T16:38:27;5.90;99.90
16200;DHT22;8207;52.494;4.654;2023-02-28T16:40:57;5.90;99.90
16200;DHT22;8207;52.494;4.654;2023-02-28T16:43:26;5.90;99.90
16200;DHT22;8207;52.494;4.654;2023-02-28T16:45:55;5.80;99.90
16200;DHT22;8207;52.494;4.654;2023-02-28T16:48:25;5.70;99.90
16200;DHT22;8207;52.494;4.654;2023-02-28T16:50:52;5.70;99.90
16200;DHT22;8207;52.494;4.654;2023-02-28T16:53:19;5.60;99.90
16200;DHT22;8207;52.494;4.654;2023-02-28T16:55:46;5.50;99.90
16200;DHT22;8207;52.494;4.654;2023-02-28T16:58:15;5.50;99.90
16200;DHT22;8207;52.494;4.654;2023-02-28T17:00:43;5.50;99.90
16200;DHT22;8207;52.494;4.654;2023-02-28T17:03:20;5.40;99.90
16200;DHT22;8207;52.494;4.654;2023-02-28T17:05:49;5.40;99.90
16200;DHT22;8207;52.494;4.654;2023-02-28T17:08:16;5.30;99.90
16200;DHT22;8207;52.494;4.654;2023-02-28T17:10:43;5.20;99.90